createdAt,value
2022-10-26T00:01:22.172Z,100551.56
2022-10-26T00:03:49.864Z,100547.41
2022-10-26T00:06:30.102Z,100547.91
2022-10-26T00:08:58.092Z,100546.84
2022-10-26T00:11:25.973Z,100549.91
2022-10-26T00:13:53.663Z,100552.88
2022-10-26T00:16:25.149Z,100552.56
2022-10-26T00:18:53.260Z,100553.84
2022-10-26T00:21:21.139Z,100564.66
2022-10-26T00:23:48.759Z,100558.28
2022-10-26T00:26:16.609Z,100556.25
2022-10-26T00:28:44.219Z,100563.19
2022-10-26T00:31:16.151Z,100562.28
2022-10-26T00:33:43.860Z,100568.22
2022-10-26T00:36:14.475Z,100565.53
2022-10-26T00:38:50.037Z,100558.34
2022-10-26T00:41:20.344Z,100563.88
2022-10-26T00:43:48.962Z,100565.03
2022-10-26T00:46:37.678Z,100553.63
2022-10-26T00:49:14.849Z,100560.47
2022-10-26T00:51:48.876Z,100562.16
2022-10-26T00:54:19.208Z,100565.09
2022-10-26T00:56:49.819Z,100577.19
2022-10-26T00:59:19.011Z,100571.31
2022-10-26T01:01:49.114Z,100575.25
2022-10-26T01:04:18.437Z,100568.91
2022-10-26T01:06:48.438Z,100573.78
2022-10-26T01:09:16.936Z,100574.91
2022-10-26T01:11:44.730Z,100573.16
2022-10-26T01:14:15.192Z,100569.78
2022-10-26T01:17:24.288Z,100566.44
2022-10-26T01:20:03.677Z,100570.66
2022-10-26T01:22:42.442Z,100569.00
2022-10-26T01:25:39.078Z,100565.44
2022-10-26T01:28:56.527Z,100566.00
2022-10-26T01:31:35.579Z,100576.75
2022-10-26T01:34:18.777Z,100575.84
2022-10-26T01:36:56.587Z,100572.41
2022-10-26T01:39:36.821Z,100575.09
2022-10-26T01:42:08.495Z,100568.47
2022-10-26T01:44:49.595Z,100567.81
2022-10-26T01:47:20.858Z,100571.03
2022-10-26T01:49:53.967Z,100573.06
2022-10-26T01:52:22.861Z,100573.97
2022-10-26T01:54:50.624Z,100572.94
2022-10-26T01:57:21.340Z,100573.97
2022-10-26T02:00:09.257Z,100567.69
2022-10-26T02:02:46.777Z,100569.75
2022-10-26T02:05:50.027Z,100573.28
2022-10-26T02:08:27.757Z,100573.97
2022-10-26T02:11:11.992Z,100574.81
2022-10-26T02:13:51.824Z,100585.38
2022-10-26T02:16:29.403Z,100584.84
2022-10-26T02:19:29.503Z,100580.94
2022-10-26T02:22:07.375Z,100596.03
2022-10-26T02:24:37.502Z,100589.16
2022-10-26T02:27:11.776Z,100581.34
2022-10-26T02:29:40.664Z,100588.56
2022-10-26T02:32:10.160Z,100600.72
2022-10-26T02:34:40.351Z,100598.19
2022-10-26T02:37:09.412Z,100605.97
2022-10-26T02:39:40.334Z,100595.34
2022-10-26T02:42:11.038Z,100592.47
2022-10-26T02:44:45.010Z,100595.97
2022-10-26T02:47:13.321Z,100595.91
2022-10-26T02:49:41.571Z,100595.09
2022-10-26T02:52:22.969Z,100601.38
2022-10-26T02:55:13.924Z,100598.94
2022-10-26T02:57:45.132Z,100606.81
2022-10-26T03:00:16.894Z,100608.81
2022-10-26T03:02:51.850Z,100605.88
2022-10-26T03:05:28.521Z,100609.78
2022-10-26T03:07:56.860Z,100610.56
2022-10-26T03:10:25.329Z,100604.19
2022-10-26T03:12:53.685Z,100615.38
2022-10-26T03:15:21.803Z,100609.16
2022-10-26T03:17:49.813Z,100617.72
2022-10-26T03:20:17.780Z,100615.78
2022-10-26T03:22:48.255Z,100622.81
2022-10-26T03:25:16.823Z,100622.88
2022-10-26T03:27:44.955Z,100626.97
2022-10-26T03:30:12.663Z,100633.13
2022-10-26T03:32:40.465Z,100633.03
2022-10-26T03:35:08.494Z,100636.38
2022-10-26T03:37:36.322Z,100626.56
2022-10-26T03:40:04.095Z,100630.97
2022-10-26T03:42:36.477Z,100628.50
2022-10-26T03:45:05.266Z,100637.19
2022-10-26T03:47:33.097Z,100633.59
2022-10-26T03:50:00.943Z,100644.53
2022-10-26T03:52:28.781Z,100632.91
2022-10-26T03:54:56.414Z,100641.72
2022-10-26T03:57:24.337Z,100647.16
2022-10-26T03:59:51.938Z,100649.06
2022-10-26T04:02:19.670Z,100654.94
2022-10-26T04:04:47.262Z,100645.50
2022-10-26T04:07:15.014Z,100658.31
2022-10-26T04:09:42.595Z,100652.84
2022-10-26T04:12:10.341Z,100650.78
2022-10-26T04:14:38.010Z,100661.75
2022-10-26T04:17:05.772Z,100658.31
2022-10-26T04:19:33.425Z,100655.91
2022-10-26T04:22:01.184Z,100656.81
2022-10-26T04:24:28.748Z,100654.94
2022-10-26T04:26:56.548Z,100655.47
2022-10-26T04:29:24.119Z,100664.09
2022-10-26T04:31:51.895Z,100660.28
2022-10-26T04:34:19.464Z,100667.50
2022-10-26T04:36:47.262Z,100663.47
2022-10-26T04:39:14.827Z,100666.25
2022-10-26T04:41:42.850Z,100663.16
2022-10-26T04:44:10.473Z,100672.53
2022-10-26T04:46:38.486Z,100674.09
2022-10-26T04:49:06.003Z,100667.50
2022-10-26T04:51:33.801Z,100673.84
2022-10-26T04:54:03.044Z,100676.06
2022-10-26T04:56:31.223Z,100669.16
2022-10-26T04:58:58.806Z,100672.53
2022-10-26T05:01:26.662Z,100676.31
2022-10-26T05:03:54.900Z,100681.56
2022-10-26T05:06:22.734Z,100686.81
2022-10-26T05:08:50.432Z,100684.13
2022-10-26T05:11:18.247Z,100688.41
2022-10-26T05:13:49.132Z,100690.56
2022-10-26T05:16:17.420Z,100698.47
2022-10-26T05:18:47.488Z,100701.78
2022-10-26T05:21:19.619Z,100702.56
2022-10-26T05:23:55.616Z,100699.25
2022-10-26T05:26:24.063Z,100707.72
2022-10-26T05:28:52.987Z,100703.38
2022-10-26T05:31:21.331Z,100706.22
2022-10-26T05:33:52.444Z,100711.47
2022-10-26T05:36:20.690Z,100715.06
2022-10-26T05:38:48.418Z,100722.72
2022-10-26T05:41:16.465Z,100722.84
2022-10-26T05:43:44.005Z,100724.47
2022-10-26T05:46:11.792Z,100724.94
2022-10-26T05:48:39.437Z,100721.53
2022-10-26T05:51:07.384Z,100729.69
2022-10-26T05:53:35.293Z,100728.09
2022-10-26T05:56:06.037Z,100739.47
2022-10-26T05:58:36.518Z,100744.25
2022-10-26T06:01:22.275Z,100749.84
2022-10-26T06:04:02.499Z,100750.78
2022-10-26T06:06:42.125Z,100755.53
2022-10-26T06:09:12.476Z,100747.91
2022-10-26T06:11:40.680Z,100746.31
2022-10-26T06:14:10.295Z,100747.53
2022-10-26T06:17:03.456Z,100749.63
2022-10-26T06:20:02.463Z,100753.72
2022-10-26T06:23:00.683Z,100752.81
2022-10-26T06:25:32.576Z,100761.38
2022-10-26T06:28:28.294Z,100766.44
2022-10-26T06:30:57.286Z,100762.97
2022-10-26T06:33:30.303Z,100767.91
2022-10-26T06:36:07.555Z,100764.25
2022-10-26T06:38:38.082Z,100767.75
2022-10-26T06:41:06.476Z,100764.94
2022-10-26T06:43:36.266Z,100777.84
2022-10-26T06:46:10.137Z,100774.81
2022-10-26T06:49:01.117Z,100777.31
2022-10-26T06:51:30.978Z,100781.53
2022-10-26T06:54:13.349Z,100782.84
2022-10-26T06:56:41.406Z,100787.63
2022-10-26T06:59:15.299Z,100780.38
2022-10-26T07:01:42.979Z,100786.25
2022-10-26T07:04:10.938Z,100790.22
2022-10-26T07:06:39.440Z,100786.63
2022-10-26T07:09:07.475Z,100788.31
2022-10-26T07:11:35.062Z,100789.13
2022-10-26T07:14:02.880Z,100797.28
2022-10-26T07:16:30.682Z,100793.97
2022-10-26T07:18:58.540Z,100798.56
2022-10-26T07:21:26.128Z,100800.78
2022-10-26T07:23:57.284Z,100796.97
2022-10-26T07:26:25.674Z,100805.00
2022-10-26T07:28:53.461Z,100805.47
2022-10-26T07:31:21.191Z,100798.63
2022-10-26T07:33:49.012Z,100802.78
2022-10-26T07:36:16.653Z,100808.19
2022-10-26T07:38:44.404Z,100812.53
2022-10-26T07:41:12.284Z,100811.78
2022-10-26T07:43:40.208Z,100809.53
2022-10-26T07:46:07.777Z,100810.38
2022-10-26T07:48:35.799Z,100807.78
2022-10-26T07:51:03.741Z,100817.66
2022-10-26T07:53:31.532Z,100814.31
2022-10-26T07:55:59.239Z,100813.28
2022-10-26T07:58:27.376Z,100823.44
2022-10-26T08:00:55.800Z,100817.09
2022-10-26T08:03:23.937Z,100820.78
2022-10-26T08:05:55.751Z,100824.56
2022-10-26T08:08:23.626Z,100827.06
2022-10-26T08:10:52.463Z,100824.06
2022-10-26T08:13:20.306Z,100836.41
2022-10-26T08:15:49.391Z,100841.66
2022-10-26T08:18:17.441Z,100840.34
2022-10-26T08:20:45.041Z,100845.59
2022-10-26T08:23:12.857Z,100834.44
2022-10-26T08:25:40.674Z,100834.84
2022-10-26T08:28:08.572Z,100841.94
2022-10-26T08:30:36.218Z,100842.78
2022-10-26T08:33:08.514Z,100842.72
2022-10-26T08:35:36.489Z,100842.72
2022-10-26T08:38:04.611Z,100839.03
2022-10-26T08:40:36.636Z,100843.69
2022-10-26T08:43:30.927Z,100843.31
2022-10-26T08:46:13.954Z,100838.94
2022-10-26T08:48:48.015Z,100847.50
2022-10-26T08:51:28.279Z,100847.31
2022-10-26T08:54:24.531Z,100857.41
2022-10-26T08:56:57.445Z,100858.31
2022-10-26T08:59:46.336Z,100871.88
2022-10-26T09:02:15.963Z,100862.22
2022-10-26T09:04:44.431Z,100869.53
2022-10-26T09:07:24.992Z,100861.81
2022-10-26T09:10:37.170Z,100868.44
2022-10-26T09:13:39.888Z,100877.34
2022-10-26T09:16:38.555Z,100875.06
2022-10-26T09:19:51.890Z,100882.41
2022-10-26T09:22:43.850Z,100890.91
2022-10-26T09:25:26.974Z,100891.63
2022-10-26T09:28:02.720Z,100895.25
2022-10-26T09:30:30.812Z,100903.88
2022-10-26T09:33:18.658Z,100892.59
2022-10-26T09:35:53.969Z,100898.31
2022-10-26T09:38:41.055Z,100899.94
2022-10-26T09:41:32.084Z,100903.94
2022-10-26T09:44:10.260Z,100903.81
2022-10-26T09:46:59.958Z,100907.50
2022-10-26T09:49:41.368Z,100900.25
2022-10-26T09:52:09.269Z,100914.06
2022-10-26T09:54:37.201Z,100916.44
2022-10-26T09:57:07.248Z,100916.66
2022-10-26T09:59:40.202Z,100920.94
2022-10-26T10:02:47.235Z,100925.22
2022-10-26T10:08:27.473Z,100915.78
2022-10-26T10:11:14.764Z,100913.84
2022-10-26T10:13:45.938Z,100912.72
2022-10-26T10:16:24.876Z,100912.53
2022-10-26T10:19:00.867Z,100917.00
2022-10-26T10:21:43.766Z,100916.91
2022-10-26T10:24:28.614Z,100914.31
2022-10-26T10:27:12.658Z,100912.16
2022-10-26T10:29:43.051Z,100914.41
2022-10-26T10:32:20.823Z,100912.47
2022-10-26T10:34:50.877Z,100904.75
2022-10-26T10:37:44.310Z,100913.31
2022-10-26T10:40:24.484Z,100910.50
2022-10-26T10:42:55.089Z,100908.03
2022-10-26T10:45:29.142Z,100909.81
2022-10-26T10:48:06.205Z,100910.03
2022-10-26T10:50:36.447Z,100909.81
2022-10-26T10:53:19.881Z,100907.09
2022-10-26T10:56:21.234Z,100902.72
2022-10-26T10:58:59.800Z,100904.09
2022-10-26T11:01:36.795Z,100909.69
2022-10-26T11:04:30.394Z,100903.50
2022-10-26T11:07:03.586Z,100905.69
2022-10-26T11:09:36.423Z,100907.25
2022-10-26T11:12:19.457Z,100909.03
2022-10-26T11:14:54.733Z,100903.50
2022-10-26T11:17:30.898Z,100915.13
2022-10-26T11:20:04.701Z,100906.78
2022-10-26T11:22:54.456Z,100922.13
2022-10-26T11:25:55.913Z,100915.50
2022-10-26T11:28:49.808Z,100915.13
2022-10-26T11:31:25.210Z,100928.81
2022-10-26T11:34:06.274Z,100921.31
2022-10-26T11:36:37.143Z,100920.09
2022-10-26T11:39:12.942Z,100923.72
2022-10-26T11:42:04.412Z,100922.69
2022-10-26T11:44:59.226Z,100918.59
2022-10-26T11:47:49.123Z,100919.88
2022-10-26T11:50:25.599Z,100923.97
2022-10-26T11:53:01.812Z,100916.88
2022-10-26T11:55:29.837Z,100918.75
2022-10-26T11:57:59.064Z,100928.22
2022-10-26T12:00:27.885Z,100929.94
2022-10-26T12:03:01.378Z,100929.31
2022-10-26T12:05:40.785Z,100928.81
2022-10-26T12:08:17.352Z,100927.75
2022-10-26T12:10:53.027Z,100931.25
2022-10-26T12:13:54.608Z,100935.53
2022-10-26T12:16:49.296Z,100933.94
2022-10-26T12:21:56.350Z,100935.06
2022-10-26T12:24:24.162Z,100943.47
2022-10-26T12:26:59.240Z,100944.19
2022-10-26T12:29:31.868Z,100955.44
2022-10-26T12:31:59.865Z,100939.38
2022-10-26T12:34:30.646Z,100949.19
2022-10-26T12:36:58.291Z,100948.53
2022-10-26T12:39:31.931Z,100955.66
2022-10-26T12:42:05.699Z,100951.69
2022-10-26T12:44:46.001Z,100956.03
2022-10-26T12:47:28.628Z,100948.72
2022-10-26T12:50:02.565Z,100946.91
2022-10-26T12:52:49.175Z,100951.81
2022-10-26T12:55:38.144Z,100952.59
2022-10-26T12:58:43.687Z,100954.06
2022-10-26T13:01:47.083Z,100950.50
2022-10-26T13:04:23.919Z,100951.56
2022-10-26T13:07:09.755Z,100953.94
2022-10-26T13:09:37.877Z,100951.69
2022-10-26T13:12:06.410Z,100949.97
2022-10-26T13:14:36.560Z,100956.53
2022-10-26T13:17:07.351Z,100955.22
2022-10-26T13:19:49.213Z,100953.88
2022-10-26T13:22:21.371Z,100955.09
2022-10-26T13:25:02.238Z,100954.47
2022-10-26T13:27:33.229Z,100946.53
2022-10-26T13:30:09.834Z,100952.69
2022-10-26T13:32:41.825Z,100945.88
2022-10-26T13:35:14.638Z,100942.78
2022-10-26T13:37:49.251Z,100949.44
2022-10-26T13:40:25.610Z,100950.63
2022-10-26T13:42:57.620Z,100956.63
2022-10-26T13:45:49.998Z,100959.22
2022-10-26T13:48:24.533Z,100951.09
2022-10-26T13:50:59.229Z,100963.16
2022-10-26T13:53:41.218Z,100963.66
2022-10-26T13:56:12.192Z,100957.00
2022-10-26T13:58:47.888Z,100964.25
2022-10-26T14:01:23.370Z,100967.25
2022-10-26T14:03:51.928Z,100966.22
2022-10-26T14:06:32.502Z,100962.00
2022-10-26T14:09:22.532Z,100960.09
2022-10-26T14:11:56.054Z,100956.44
2022-10-26T14:14:29.660Z,100958.16
2022-10-26T14:16:58.276Z,100957.03
2022-10-26T14:19:31.196Z,100951.75
2022-10-26T14:22:00.001Z,100954.03
2022-10-26T14:24:46.841Z,100951.16
2022-10-26T14:27:17.142Z,100953.00
2022-10-26T14:29:49.900Z,100959.88
2022-10-26T14:32:33.592Z,100957.69
2022-10-26T14:35:01.686Z,100957.56
2022-10-26T14:37:50.818Z,100951.94
2022-10-26T14:40:26.081Z,100963.06
2022-10-26T14:42:56.617Z,100962.47
2022-10-26T14:45:47.678Z,100961.31
2022-10-26T14:48:32.687Z,100963.47
2022-10-26T14:51:10.768Z,100971.94
2022-10-26T14:53:41.029Z,100964.69
2022-10-26T14:56:31.631Z,100966.78
2022-10-26T14:58:59.738Z,100965.53
2022-10-26T15:01:31.803Z,100969.97
2022-10-26T15:04:28.291Z,100974.94
2022-10-26T15:07:08.630Z,100973.47
2022-10-26T15:09:53.161Z,100975.34
2022-10-26T15:12:28.426Z,100980.22
2022-10-26T15:15:06.344Z,100984.91
2022-10-26T15:17:40.845Z,100986.97
2022-10-26T15:20:15.925Z,100985.47
2022-10-26T15:22:50.350Z,100997.19
2022-10-26T15:25:39.047Z,100991.31
2022-10-26T15:28:20.761Z,100991.84
2022-10-26T15:31:04.593Z,100999.81
2022-10-26T15:33:33.870Z,101003.59
2022-10-26T15:36:19.262Z,100999.19
2022-10-26T15:38:51.663Z,101003.59
2022-10-26T15:41:30.072Z,101006.97
2022-10-26T15:44:06.387Z,101013.84
2022-10-26T15:46:36.363Z,101011.78
2022-10-26T15:49:07.187Z,101018.91
2022-10-26T15:51:35.294Z,101020.69
2022-10-26T15:54:04.854Z,101021.53
2022-10-26T15:56:32.913Z,101018.16
2022-10-26T15:59:00.801Z,101017.50
2022-10-26T16:01:29.837Z,101017.59
2022-10-26T16:03:57.739Z,101014.31
2022-10-26T16:06:34.477Z,101013.88
2022-10-26T16:09:05.061Z,101016.03
2022-10-26T16:11:33.424Z,101018.03
2022-10-26T16:14:03.711Z,101019.16
2022-10-26T16:16:32.430Z,101022.03
2022-10-26T16:21:51.507Z,101009.53
2022-10-26T16:24:19.514Z,101023.59
2022-10-26T16:26:47.595Z,101035.13
2022-10-26T16:29:15.721Z,101038.81
2022-10-26T16:31:43.339Z,101043.34
2022-10-26T16:34:11.242Z,101043.41
2022-10-26T16:36:39.084Z,101038.28
2022-10-26T16:39:07.725Z,101043.72
2022-10-26T16:41:35.459Z,101047.25
2022-10-26T16:44:03.247Z,101039.56
2022-10-26T16:46:30.935Z,101041.34
2022-10-26T16:48:59.982Z,101032.91
2022-10-26T16:51:28.551Z,101041.69
2022-10-26T16:53:57.547Z,101041.84
2022-10-26T16:56:28.630Z,101047.94
2022-10-26T16:58:57.194Z,101047.16
2022-10-26T17:01:25.198Z,101050.75
2022-10-26T17:03:53.709Z,101043.09
2022-10-26T17:06:22.575Z,101047.53
2022-10-26T17:08:50.399Z,101039.78
2022-10-26T17:11:20.948Z,101033.78
2022-10-26T17:13:52.902Z,101044.09
2022-10-26T17:16:22.542Z,101046.91
2022-10-26T17:18:51.437Z,101047.00
2022-10-26T17:21:27.283Z,101042.75
2022-10-26T17:23:55.479Z,101043.75
2022-10-26T17:26:23.223Z,101048.16
2022-10-26T17:28:56.714Z,101047.25
2022-10-26T17:31:25.516Z,101050.78
2022-10-26T17:33:53.699Z,101062.09
2022-10-26T17:36:23.160Z,101063.03
2022-10-26T17:38:53.147Z,101069.16
2022-10-26T17:41:22.875Z,101070.94
2022-10-26T17:43:51.436Z,101078.03
2022-10-26T17:46:21.230Z,101071.16
2022-10-26T17:48:52.949Z,101075.47
2022-10-26T17:51:20.847Z,101082.53
2022-10-26T17:53:49.548Z,101079.09
2022-10-26T17:56:29.000Z,101078.25
2022-10-26T17:59:02.059Z,101086.97
2022-10-26T18:01:31.744Z,101088.72
2022-10-26T18:04:00.487Z,101079.22
2022-10-26T18:06:28.207Z,101086.25
2022-10-26T18:08:59.110Z,101079.31
2022-10-26T18:11:28.489Z,101082.84
2022-10-26T18:13:57.516Z,101086.41
2022-10-26T18:16:27.220Z,101089.94
2022-10-26T18:19:05.461Z,101083.03
2022-10-26T18:21:37.498Z,101090.94
2022-10-26T18:24:07.349Z,101090.16
2022-10-26T18:26:35.607Z,101094.53
2022-10-26T18:29:04.400Z,101098.81
2022-10-26T18:31:34.880Z,101091.97
2022-10-26T18:34:05.820Z,101097.19
2022-10-26T18:36:33.745Z,101105.06
2022-10-26T18:39:01.618Z,101106.78
2022-10-26T18:41:29.504Z,101105.09
2022-10-26T18:44:01.639Z,101111.97
2022-10-26T18:46:33.273Z,101115.53
2022-10-26T18:49:01.329Z,101128.59
2022-10-26T18:51:34.233Z,101127.75
2022-10-26T18:54:03.665Z,101132.16
2022-10-26T18:56:31.638Z,101137.19
2022-10-26T18:59:00.403Z,101124.28
2022-10-26T19:01:33.824Z,101126.97
2022-10-26T19:04:08.021Z,101139.13
2022-10-26T19:06:39.014Z,101140.94
2022-10-26T19:09:09.126Z,101142.69
2022-10-26T19:11:37.578Z,101146.22
2022-10-26T19:14:05.539Z,101140.97
2022-10-26T19:16:45.261Z,101138.41
2022-10-26T19:19:16.337Z,101147.13
2022-10-26T19:21:45.150Z,101143.75
2022-10-26T19:24:15.331Z,101146.28
2022-10-26T19:26:44.054Z,101155.03
2022-10-26T19:29:15.508Z,101156.78
2022-10-26T19:31:45.970Z,101163.75
2022-10-26T19:34:15.082Z,101163.75
2022-10-26T19:36:45.153Z,101165.53
2022-10-26T19:39:18.099Z,101170.72
2022-10-26T19:41:46.756Z,101172.44
2022-10-26T19:44:16.568Z,101174.19
2022-10-26T19:46:45.678Z,101179.38
2022-10-26T19:49:13.593Z,101179.38
2022-10-26T19:51:41.289Z,101181.06
2022-10-26T19:54:09.190Z,101188.00
2022-10-26T19:56:37.657Z,101192.22
2022-10-26T19:59:06.617Z,101188.69
2022-10-26T20:01:34.781Z,101192.94
2022-10-26T20:04:03.165Z,101192.91
2022-10-26T20:06:31.048Z,101189.34
2022-10-26T20:08:59.998Z,101187.50
2022-10-26T20:11:28.209Z,101196.03
2022-10-26T20:13:56.447Z,101197.59
2022-10-26T20:16:25.338Z,101199.38
2022-10-26T20:18:53.242Z,101199.19
2022-10-26T20:21:21.004Z,101192.19
2022-10-26T20:23:48.891Z,101203.69
2022-10-26T20:26:19.733Z,101196.84
2022-10-26T20:28:51.030Z,101200.38
2022-10-26T20:31:19.911Z,101195.06
2022-10-26T20:33:54.509Z,101197.53
2022-10-26T20:36:22.748Z,101195.69
2022-10-26T20:38:52.018Z,101205.28
2022-10-26T20:41:20.313Z,101198.13
2022-10-26T20:43:48.462Z,101200.03
2022-10-26T20:46:27.399Z,101193.06
2022-10-26T20:48:55.664Z,101194.81
2022-10-26T20:52:15.265Z,101195.81
2022-10-26T20:54:53.184Z,101198.53
2022-10-26T20:57:28.228Z,101196.94
2022-10-26T21:00:03.868Z,101197.88
2022-10-26T21:02:32.719Z,101198.81
2022-10-26T21:05:00.659Z,101194.66
2022-10-26T21:07:28.277Z,101209.41
2022-10-26T21:09:56.096Z,101212.06
2022-10-26T21:12:23.819Z,101207.72
2022-10-26T21:14:51.539Z,101210.31
2022-10-26T21:17:19.131Z,101209.44
2022-10-26T21:19:46.892Z,101214.72
2022-10-26T21:22:15.755Z,101222.53
2022-10-26T21:24:43.547Z,101217.41
2022-10-26T21:27:11.080Z,101213.94
2022-10-26T21:29:38.822Z,101207.88
2022-10-26T21:32:06.471Z,101214.88
2022-10-26T21:34:34.395Z,101208.84
2022-10-26T21:37:02.191Z,101210.56
2022-10-26T21:39:30.018Z,101212.31
2022-10-26T21:41:57.800Z,101211.44
2022-10-26T21:44:40.481Z,101209.63
2022-10-26T21:47:10.298Z,101219.97
2022-10-26T21:49:38.647Z,101220.88
2022-10-26T21:52:07.939Z,101229.66
2022-10-26T21:54:35.807Z,101232.28
2022-10-26T21:57:03.537Z,101241.00
2022-10-26T21:59:31.305Z,101233.22
2022-10-26T22:01:59.125Z,101238.44
2022-10-26T22:04:26.986Z,101234.94
2022-10-26T22:06:54.677Z,101215.06
2022-10-26T22:09:22.459Z,101228.88
2022-10-26T22:11:50.191Z,101229.75
2022-10-26T22:14:18.754Z,101228.91
2022-10-26T22:16:46.693Z,101228.88
2022-10-26T22:19:14.510Z,101229.72
2022-10-26T22:21:42.568Z,101230.59
2022-10-26T22:24:11.272Z,101231.50
2022-10-26T22:26:39.252Z,101233.19
2022-10-26T22:29:07.019Z,101229.75
2022-10-26T22:31:37.704Z,101233.22
2022-10-26T22:34:08.450Z,101229.75
2022-10-26T22:36:36.496Z,101234.06
2022-10-26T22:39:04.586Z,101230.63
2022-10-26T22:41:32.458Z,101229.75
2022-10-26T22:44:00.530Z,101242.75
2022-10-26T22:46:28.983Z,101242.75
2022-10-26T22:48:59.763Z,101247.06
2022-10-26T22:51:33.047Z,101247.06
2022-10-26T22:54:03.052Z,101248.81
2022-10-26T22:56:32.642Z,101249.66
2022-10-26T22:59:01.015Z,101242.75
2022-10-26T23:01:31.689Z,101245.34
2022-10-26T23:04:00.565Z,101237.56
2022-10-26T23:06:32.114Z,101243.59
2022-10-26T23:09:00.401Z,101245.34
2022-10-26T23:11:29.338Z,101241.00
2022-10-26T23:14:02.531Z,101228.00
2022-10-26T23:16:31.459Z,101219.25
2022-10-26T23:19:00.144Z,101223.50
2022-10-26T23:21:29.676Z,101219.16
2022-10-26T23:23:58.161Z,101218.38
2022-10-26T23:26:26.099Z,101221.00
2022-10-26T23:28:53.860Z,101225.38
2022-10-26T23:31:25.587Z,101227.97
2022-10-26T23:33:55.555Z,101227.09
2022-10-26T23:36:23.764Z,101228.00
2022-10-26T23:38:51.781Z,101230.63
2022-10-26T23:41:19.366Z,101234.09
2022-10-26T23:43:47.327Z,101232.38
2022-10-26T23:46:15.077Z,101232.34
2022-10-26T23:48:42.980Z,101231.47
2022-10-26T23:51:10.664Z,101234.03
2022-10-26T23:53:39.115Z,101240.09
2022-10-26T23:56:07.123Z,101228.84
2022-10-26T23:58:34.991Z,101234.88
